Time;durP1;ratioP1;P1;durP2;ratioP2;P2;SDS_P1;SDS_P2;PMS_P1;PMS_P2;Temp;Humidity;BMP_temperature;BMP_pressure;BME280_temperature;BME280_humidity;BME280_pressure;Samples;Min_cycle;Max_cycle;Signal;HPM_P1;HPM_P2
2021/11/07 00:09:20;;;;;;;45.42;28.98;;;;;;;;;;5055790;28;20055;-54
2021/11/07 00:11:49;;;;;;;65.88;39.65;;;;;;;;;;5055229;28;20035;-54
2021/11/07 00:14:15;;;;;;;48.63;31.80;;;;;;;;;;5055101;28;20148;-55
2021/11/07 00:16:43;;;;;;;63.53;40.75;;;;;;;;;;5054984;28;20021;-55
2021/11/07 00:19:29;;;;;;;68.47;42.67;;;;;;;;;;5055319;28;20021;-55
2021/11/07 00:27:05;;;;;;;60.80;36.65;;;;;;;;;;5054856;28;20029;-55
2021/11/07 00:29:46;;;;;;;;;;;;;;;;;;5055510;28;20024;-55
2021/11/07 00:37:46;;;;;;;38.75;25.05;;;;;;;;;;5051432;28;20554;-55
2021/11/07 00:40:42;;;;;;;52.58;33.67;;;;;;;;;;5048849;28;20107;-55
2021/11/07 00:48:21;;;;;;;49.08;30.83;;;;;;;;;;5053617;28;20083;-55
2021/11/07 00:50:59;;;;;;;45.00;29.15;;;;;;;;;;5054196;28;20134;-55
2021/11/07 00:58:57;;;;;;;43.65;27.42;;;;;;;;;;5054602;28;20094;-54
2021/11/07 01:01:19;;;;;;;41.58;25.15;;;;;;;;;;5047966;28;20071;-54
2021/11/07 01:03:46;;;;;;;48.83;28.77;;;;;;;;;;5054230;28;20057;-54
2021/11/07 01:06:12;;;;;;;49.30;29.00;;;;;;;;;;5052979;28;20028;-54
2021/11/07 01:08:39;;;;;;;44.60;26.00;;;;;;;;;;5054316;28;20025;-55
2021/11/07 01:11:05;;;;;;;56.35;35.30;;;;;;;;;;5054508;28;20439;-55
2021/11/07 01:13:31;;;;;;;40.20;26.98;;;;;;;;;;5053853;28;20477;-55
2021/11/07 01:15:58;;;;;;;33.35;23.70;;;;;;;;;;5054034;28;20056;-56
2021/11/07 01:18:24;;;;;;;34.50;24.67;;;;;;;;;;5054005;28;20032;-55
2021/11/07 01:20:50;;;;;;;35.40;25.38;;;;;;;;;;5053885;28;20037;-55
2021/11/07 01:23:40;;;;;;;42.60;29.55;;;;;;;;;;5054363;28;20350;-55
2021/11/07 01:26:14;;;;;;;43.85;28.80;;;;;;;;;;5053583;28;20041;-54
2021/11/07 01:28:54;;;;;;;37.90;26.55;;;;;;;;;;5053780;28;20028;-59
2021/11/07 01:31:20;;;;;;;47.78;31.42;;;;;;;;;;5047617;28;20100;-56
2021/11/07 01:33:46;;;;;;;41.45;25.40;;;;;;;;;;5053670;28;20393;-57
2021/11/07 01:38:50;;;;;;;86.35;50.33;;;;;;;;;;5053645;28;20064;-56
2021/11/07 01:41:22;;;;;;;53.78;34.38;;;;;;;;;;5051169;28;20036;-56
2021/11/07 01:43:50;;;;;;;45.00;30.65;;;;;;;;;;5053353;28;20033;-55
2021/11/07 01:46:28;;;;;;;87.25;52.85;;;;;;;;;;5053936;28;20028;-56
2021/11/07 01:51:54;;;;;;;42.15;28.25;;;;;;;;;;5011274;28;20161;-56
2021/11/07 01:56:46;;;;;;;39.40;26.88;;;;;;;;;;5012047;28;20041;-55
2021/11/07 01:59:13;;;;;;;45.70;30.77;;;;;;;;;;5011885;28;20073;-51
2021/11/07 02:01:39;;;;;;;50.38;33.20;;;;;;;;;;5011923;28;20034;-52
2021/11/07 02:04:05;;;;;;;44.67;28.95;;;;;;;;;;5011896;28;20050;-52
2021/11/07 02:06:32;;;;;;;48.47;33.22;;;;;;;;;;5011651;28;20476;-50
2021/11/07 02:08:58;;;;;;;43.35;29.65;;;;;;;;;;5011853;28;20034;-51
2021/11/07 02:11:24;;;;;;;46.15;31.95;;;;;;;;;;5011903;28;20064;-53
2021/11/07 02:13:54;;;;;;;43.20;30.80;;;;;;;;;;5010074;28;20034;-51
2021/11/07 02:16:22;;;;;;;45.92;31.30;;;;;;;;;;5011106;28;20422;-51
2021/11/07 02:18:49;;;;;;;46.83;32.88;;;;;;;;;;5011677;28;20109;-52
2021/11/07 02:21:20;;;;;;;53.28;32.42;;;;;;;;;;5011297;28;20038;-51
2021/11/07 02:23:46;;;;;;;44.58;29.80;;;;;;;;;;5011650;28;20029;-51
2021/11/07 02:26:12;;;;;;;48.30;32.53;;;;;;;;;;5011350;28;20030;-52
2021/11/07 02:28:41;;;;;;;51.90;34.20;;;;;;;;;;5037248;28;20473;-51
2021/11/07 02:31:08;;;;;;;46.55;30.77;;;;;;;;;;5053460;28;20068;-51
2021/11/07 02:33:35;;;;;;;47.15;29.98;;;;;;;;;;5053151;28;20033;-51
2021/11/07 02:36:11;;;;;;;43.80;31.67;;;;;;;;;;5053421;28;20021;-51
2021/11/07 02:38:38;;;;;;;55.35;36.65;;;;;;;;;;5052971;28;20115;-50
2021/11/07 02:41:08;;;;;;;47.50;33.05;;;;;;;;;;5053045;28;20025;-52
2021/11/07 02:43:47;;;;;;;46.40;29.52;;;;;;;;;;5052669;28;20028;-52
2021/11/07 02:46:17;;;;;;;65.00;41.72;;;;;;;;;;5046839;28;20034;-52
2021/11/07 02:48:48;;;;;;;45.13;31.65;;;;;;;;;;5033018;28;20168;-52
2021/11/07 02:51:15;;;;;;;50.17;34.03;;;;;;;;;;5032989;28;20195;-53
2021/11/07 02:53:42;;;;;;;53.75;34.50;;;;;;;;;;5033050;28;20041;-53
2021/11/07 02:56:08;;;;;;;50.67;33.50;;;;;;;;;;5033196;28;20466;-53
2021/11/07 02:58:35;;;;;;;48.30;31.25;;;;;;;;;;5033243;28;20044;-53
2021/11/07 03:01:02;;;;;;;45.78;31.15;;;;;;;;;;5033128;28;20028;-52
2021/11/07 03:03:29;;;;;;;39.28;27.95;;;;;;;;;;5033206;28;20056;-51
2021/11/07 03:05:56;;;;;;;55.13;35.97;;;;;;;;;;5033007;28;20079;-52
2021/11/07 03:08:22;;;;;;;55.90;36.88;;;;;;;;;;5033004;28;20030;-52
2021/11/07 03:10:48;;;;;;;57.97;38.50;;;;;;;;;;5033067;28;20119;-53
2021/11/07 03:13:19;;;;;;;48.30;31.75;;;;;;;;;;5033059;28;20026;-51
2021/11/07 03:15:45;;;;;;;54.78;36.08;;;;;;;;;;5033126;28;20029;-51
2021/11/07 03:18:12;;;;;;;59.85;37.88;;;;;;;;;;5033168;28;20026;-51
2021/11/07 03:20:39;;;;;;;53.92;33.75;;;;;;;;;;5033001;28;20057;-53
2021/11/07 03:23:06;;;;;;;64.72;37.22;;;;;;;;;;5032986;28;20466;-53
2021/11/07 03:25:32;;;;;;;67.13;39.20;;;;;;;;;;5032901;28;20080;-53
2021/11/07 03:27:59;;;;;;;53.03;34.97;;;;;;;;;;5032907;28;20022;-52
2021/11/07 03:33:39;;;;;;;50.55;34.10;;;;;;;;;;5033754;28;20034;-52
2021/11/07 03:35:56;;;;;;;48.92;29.92;;;;;;;;;;5037205;28;20128;-52
2021/11/07 03:38:23;;;;;;;51.40;32.92;;;;;;;;;;5036690;28;20025;-53
2021/11/07 03:40:49;;;;;;;45.25;28.38;;;;;;;;;;5036737;28;20017;-51
2021/11/07 03:43:15;;;;;;;47.55;31.95;;;;;;;;;;5036602;28;20026;-52
2021/11/07 03:45:41;;;;;;;38.60;27.83;;;;;;;;;;5036527;28;20389;-52
2021/11/07 03:48:08;;;;;;;42.17;27.35;;;;;;;;;;5036521;28;20107;-53
2021/11/07 03:50:37;;;;;;;47.20;29.38;;;;;;;;;;5036262;28;20046;-53
2021/11/07 03:53:03;;;;;;;39.58;27.77;;;;;;;;;;5036860;28;20060;-53
2021/11/07 03:55:29;;;;;;;43.97;30.02;;;;;;;;;;5035379;28;20025;-53
2021/11/07 03:57:56;;;;;;;40.35;27.60;;;;;;;;;;5036539;28;20026;-52
2021/11/07 04:00:22;;;;;;;48.08;30.15;;;;;;;;;;5036403;28;20026;-51
2021/11/07 04:02:51;;;;;;;41.90;28.17;;;;;;;;;;5036278;28;20030;-53
2021/11/07 04:05:18;;;;;;;46.03;29.02;;;;;;;;;;5036133;28;20405;-53
2021/11/07 04:07:44;;;;;;;48.92;32.65;;;;;;;;;;5036101;28;20021;-52
2021/11/07 04:10:11;;;;;;;41.53;29.23;;;;;;;;;;5036226;28;20029;-52
2021/11/07 04:12:38;;;;;;;41.45;29.70;;;;;;;;;;5036100;28;20067;-52
2021/11/07 04:15:07;;;;;;;34.00;24.83;;;;;;;;;;5036215;28;20041;-52
2021/11/07 04:17:33;;;;;;;39.00;27.13;;;;;;;;;;5035926;28;20115;-52
2021/11/07 04:19:59;;;;;;;42.88;27.83;;;;;;;;;;5035738;28;20112;-53
2021/11/07 04:22:26;;;;;;;49.13;35.22;;;;;;;;;;5035733;28;20477;-53
2021/11/07 04:24:52;;;;;;;55.15;38.00;;;;;;;;;;5035883;28;20048;-52
2021/11/07 04:27:21;;;;;;;39.70;26.35;;;;;;;;;;5035883;28;20029;-53
2021/11/07 04:29:47;;;;;;;41.05;28.65;;;;;;;;;;5035753;28;20064;-51
2021/11/07 04:32:13;;;;;;;45.83;31.70;;;;;;;;;;5035708;28;20087;-52
2021/11/07 04:34:40;;;;;;;39.60;27.15;;;;;;;;;;5035599;28;20026;-54
2021/11/07 04:37:06;;;;;;;44.75;30.13;;;;;;;;;;5035690;28;20040;-52
2021/11/07 04:39:32;;;;;;;38.05;26.58;;;;;;;;;;5035696;28;20064;-53
2021/11/07 04:41:58;;;;;;;47.63;31.08;;;;;;;;;;5035504;28;20535;-51
2021/11/07 04:44:25;;;;;;;45.03;29.83;;;;;;;;;;5035073;28;20032;-53
2021/11/07 04:46:51;;;;;;;38.17;26.58;;;;;;;;;;5035530;28;20024;-53
2021/11/07 04:49:17;;;;;;;44.65;29.38;;;;;;;;;;5035492;28;20104;-53
2021/11/07 04:51:44;;;;;;;38.78;26.67;;;;;;;;;;5035050;28;20045;-53
2021/11/07 04:54:10;;;;;;;42.20;27.60;;;;;;;;;;5035445;28;20029;-53
2021/11/07 04:56:36;;;;;;;38.13;26.38;;;;;;;;;;5035157;28;20029;-53
2021/11/07 04:59:03;;;;;;;34.85;26.00;;;;;;;;;;5035222;28;20061;-53
2021/11/07 05:01:29;;;;;;;41.28;26.77;;;;;;;;;;5035189;28;20028;-51
2021/11/07 05:03:58;;;;;;;38.75;26.50;;;;;;;;;;5033972;28;20390;-53
2021/11/07 05:06:24;;;;;;;43.97;26.67;;;;;;;;;;5035029;28;20021;-53
2021/11/07 05:08:50;;;;;;;35.90;23.38;;;;;;;;;;5035159;28;20037;-53
2021/11/07 05:11:16;;;;;;;36.45;24.60;;;;;;;;;;5035256;28;20470;-52
2021/11/07 05:13:43;;;;;;;43.25;26.75;;;;;;;;;;5034721;28;20502;-52
2021/11/07 05:16:09;;;;;;;41.65;27.58;;;;;;;;;;5034888;28;20071;-52
2021/11/07 05:18:35;;;;;;;36.53;24.13;;;;;;;;;;5033564;28;20026;-51
2021/11/07 05:21:02;;;;;;;37.72;24.77;;;;;;;;;;5034821;28;20055;-53
2021/11/07 05:23:28;;;;;;;38.92;25.80;;;;;;;;;;5035246;28;20021;-53
2021/11/07 05:25:55;;;;;;;41.17;26.65;;;;;;;;;;5034874;28;20032;-53
2021/11/07 05:28:22;;;;;;;39.92;25.70;;;;;;;;;;5034911;28;20025;-52
2021/11/07 05:30:51;;;;;;;44.83;26.65;;;;;;;;;;5034668;28;20024;-51
2021/11/07 05:33:20;;;;;;;66.07;33.97;;;;;;;;;;5034510;28;20034;-50
2021/11/07 05:35:46;;;;;;;68.20;34.65;;;;;;;;;;5034445;28;20468;-51
2021/11/07 05:38:12;;;;;;;54.22;31.42;;;;;;;;;;5034466;28;20029;-54
2021/11/07 05:40:39;;;;;;;49.55;30.65;;;;;;;;;;5034298;28;20049;-53
2021/11/07 05:43:05;;;;;;;45.25;28.38;;;;;;;;;;5034709;28;20096;-54
2021/11/07 05:45:31;;;;;;;63.30;36.05;;;;;;;;;;5034448;28;20616;-54
2021/11/07 05:47:57;;;;;;;57.03;32.75;;;;;;;;;;5034261;28;20079;-52
2021/11/07 05:50:24;;;;;;;50.88;31.13;;;;;;;;;;5033952;28;20136;-53
2021/11/07 05:52:51;;;;;;;43.40;27.30;;;;;;;;;;5034337;28;20021;-53
2021/11/07 05:55:18;;;;;;;41.55;26.30;;;;;;;;;;5033548;28;20040;-53
2021/11/07 05:57:44;;;;;;;44.53;28.08;;;;;;;;;;5032979;28;20106;-53
2021/11/07 06:00:12;;;;;;;48.47;29.85;;;;;;;;;;5034006;28;20403;-54
2021/11/07 06:02:39;;;;;;;47.17;29.77;;;;;;;;;;5034028;28;20025;-52
2021/11/07 06:05:05;;;;;;;44.30;28.52;;;;;;;;;;5033774;28;20489;-53
2021/11/07 06:07:31;;;;;;;45.30;30.35;;;;;;;;;;5034137;28;20025;-51
2021/11/07 06:09:59;;;;;;;46.25;30.92;;;;;;;;;;5034014;28;20034;-52
2021/11/07 06:12:34;;;;;;;46.58;30.20;;;;;;;;;;5034237;28;20462;-53
2021/11/07 06:15:01;;;;;;;43.90;29.88;;;;;;;;;;5033730;28;20033;-54
2021/11/07 06:17:27;;;;;;;41.50;29.00;;;;;;;;;;5032499;28;20041;-52
2021/11/07 06:19:53;;;;;;;38.60;26.15;;;;;;;;;;5033815;28;20099;-52
2021/11/07 06:22:19;;;;;;;38.03;26.50;;;;;;;;;;5033908;28;20470;-54
2021/11/07 06:24:48;;;;;;;34.90;25.05;;;;;;;;;;5033845;28;20033;-54
2021/11/07 06:27:14;;;;;;;37.72;25.73;;;;;;;;;;5032626;28;20030;-53
2021/11/07 06:29:42;;;;;;;37.30;26.48;;;;;;;;;;5033514;28;20028;-53
2021/11/07 06:32:11;;;;;;;42.13;28.90;;;;;;;;;;5033468;28;20072;-53
2021/11/07 06:34:37;;;;;;;41.20;28.70;;;;;;;;;;5033464;28;20041;-53
2021/11/07 06:37:10;;;;;;;47.53;31.42;;;;;;;;;;5033477;28;20017;-52
2021/11/07 06:39:36;;;;;;;44.10;30.75;;;;;;;;;;5033527;28;20060;-54
2021/11/07 06:42:03;;;;;;;46.30;31.10;;;;;;;;;;5033535;28;20055;-53
2021/11/07 06:44:30;;;;;;;47.75;31.00;;;;;;;;;;5033536;28;20040;-54
2021/11/07 06:46:57;;;;;;;50.03;31.10;;;;;;;;;;5033348;28;20026;-50
2021/11/07 06:49:23;;;;;;;42.05;29.52;;;;;;;;;;5033260;28;20079;-52
2021/11/07 06:51:50;;;;;;;41.42;28.63;;;;;;;;;;5033045;28;20060;-53
2021/11/07 06:54:16;;;;;;;41.72;27.45;;;;;;;;;;5033291;28;20030;-54
2021/11/07 06:56:42;;;;;;;48.45;29.98;;;;;;;;;;5033207;28;20026;-54
2021/11/07 06:59:09;;;;;;;46.38;28.88;;;;;;;;;;5033036;28;20036;-53
2021/11/07 07:01:37;;;;;;;43.50;27.58;;;;;;;;;;5033080;28;20436;-53
2021/11/07 07:04:03;;;;;;;50.35;31.65;;;;;;;;;;5033132;28;20458;-54
2021/11/07 07:06:29;;;;;;;45.78;29.85;;;;;;;;;;5033210;28;20104;-54
2021/11/07 07:09:04;;;;;;;44.15;29.40;;;;;;;;;;5037197;28;20040;-52
2021/11/07 07:14:10;;;;;;;43.47;28.30;;;;;;;;;;5037173;28;20033;-54
2021/11/07 07:30:25;;;;;;;56.17;35.20;;;;;;;;;;5036972;28;20032;-52
2021/11/07 07:35:29;;;;;;;43.85;29.80;;;;;;;;;;5036621;28;20053;-53
2021/11/07 07:37:57;;;;;;;51.17;32.80;;;;;;;;;;5036810;28;20036;-54
2021/11/07 07:40:26;;;;;;;48.63;33.45;;;;;;;;;;5036941;28;20484;-53
2021/11/07 07:42:52;;;;;;;61.88;40.35;;;;;;;;;;5036725;28;20022;-53
2021/11/07 07:45:19;;;;;;;47.50;31.20;;;;;;;;;;5036566;28;20046;-54
2021/11/07 07:47:45;;;;;;;44.17;28.65;;;;;;;;;;5036565;28;20037;-54
2021/11/07 07:50:12;;;;;;;46.65;31.15;;;;;;;;;;5036470;28;20049;-55
2021/11/07 07:52:39;;;;;;;38.25;25.17;;;;;;;;;;5036568;28;20021;-53
2021/11/07 07:55:08;;;;;;;42.38;27.92;;;;;;;;;;5036437;28;20124;-55
2021/11/07 07:57:34;;;;;;;40.42;26.63;;;;;;;;;;5052728;28;20025;-54
2021/11/07 08:00:00;;;;;;;51.17;30.83;;;;;;;;;;5055721;28;20025;-54
2021/11/07 08:02:27;;;;;;;45.45;30.20;;;;;;;;;;5055724;28;20021;-52
2021/11/07 08:04:53;;;;;;;47.80;28.70;;;;;;;;;;5055886;28;20527;-53
2021/11/07 08:07:19;;;;;;;39.67;25.35;;;;;;;;;;5055692;28;20039;-54
2021/11/07 08:09:48;;;;;;;38.22;25.40;;;;;;;;;;5055643;28;20029;-53
2021/11/07 08:12:14;;;;;;;42.70;27.48;;;;;;;;;;5055433;28;20021;-53
2021/11/07 08:14:41;;;;;;;50.22;33.92;;;;;;;;;;5055327;28;20500;-52
2021/11/07 08:17:07;;;;;;;43.42;28.63;;;;;;;;;;5055327;28;20056;-54
2021/11/07 08:19:33;;;;;;;45.70;30.25;;;;;;;;;;5054790;28;20167;-53
2021/11/07 08:22:00;;;;;;;41.83;25.98;;;;;;;;;;5055691;28;20013;-54
2021/11/07 08:24:26;;;;;;;37.47;25.05;;;;;;;;;;5055665;28;20025;-52
2021/11/07 08:26:53;;;;;;;35.75;23.65;;;;;;;;;;5055565;28;20171;-54
2021/11/07 08:29:22;;;;;;;35.10;23.13;;;;;;;;;;5055662;28;20071;-52
2021/11/07 08:31:51;;;;;;;34.95;24.15;;;;;;;;;;5055588;28;20029;-53
2021/11/07 08:34:19;;;;;;;41.35;26.88;;;;;;;;;;5055454;28;20079;-54
2021/11/07 08:39:41;;;;;;;40.55;27.70;;;;;;;;;;5055363;28;20032;-54
2021/11/07 08:42:10;;;;;;;32.20;20.65;;;;;;;;;;5054923;28;20067;-53
2021/11/07 09:01:20;;;;;;;35.70;23.55;;;;;;;;;;5053972;28;20089;-54
2021/11/07 09:06:37;;;;;;;36.00;25.08;;;;;;;;;;5054398;28;20074;-52
2021/11/07 09:09:08;;;;;;;45.35;28.00;;;;;;;;;;5052264;28;20465;-52
2021/11/07 09:11:34;;;;;;;104.22;47.92;;;;;;;;;;5054351;28;20024;-53
2021/11/07 09:14:01;;;;;;;55.58;32.38;;;;;;;;;;5054223;28;20029;-54
2021/11/07 09:16:27;;;;;;;45.78;27.42;;;;;;;;;;5054125;28;20013;-53
2021/11/07 09:18:57;;;;;;;56.17;31.38;;;;;;;;;;5054137;28;20056;-53
2021/11/07 09:21:28;;;;;;;52.50;33.20;;;;;;;;;;5054522;28;20518;-53
2021/11/07 09:24:02;;;;;;;40.35;28.17;;;;;;;;;;5054673;28;20017;-52
2021/11/07 09:26:37;;;;;;;45.42;30.48;;;;;;;;;;5054032;28;20039;-53
2021/11/07 09:29:10;;;;;;;40.67;28.90;;;;;;;;;;5054127;28;20017;-52
2021/11/07 09:31:48;;;;;;;46.30;32.03;;;;;;;;;;5050920;28;20472;-54
2021/11/07 09:34:26;;;;;;;41.30;29.33;;;;;;;;;;5051673;28;20033;-52
2021/11/07 09:37:02;;;;;;;31.65;23.52;;;;;;;;;;5051289;28;20025;-51
2021/11/07 09:40:06;;;;;;;36.85;25.15;;;;;;;;;;5053827;28;20024;-53
2021/11/07 09:42:57;;;;;;;38.90;25.90;;;;;;;;;;5049678;28;20044;-53
2021/11/07 09:45:28;;;;;;;;;;;;;;;;;;5054190;28;20385;-54
2021/11/07 09:48:02;;;;;;;48.15;31.30;;;;;;;;;;5051463;28;19905;-53
2021/11/07 09:50:28;;;;;;;49.08;31.30;;;;;;;;;;5053262;28;20045;-53
2021/11/07 09:52:55;;;;;;;47.65;31.83;;;;;;;;;;5053559;28;20024;-53
2021/11/07 09:55:26;;;;;;;47.53;32.13;;;;;;;;;;5053482;28;20067;-52
2021/11/07 09:57:57;;;;;;;73.60;48.13;;;;;;;;;;5050886;28;20021;-51
2021/11/07 10:00:29;;;;;;;71.32;40.40;;;;;;;;;;5053259;28;20026;-53
2021/11/07 10:02:55;;;;;;;58.20;36.17;;;;;;;;;;5051218;28;20021;-52
2021/11/07 10:05:23;;;;;;;58.25;38.22;;;;;;;;;;5053162;28;20389;-52
2021/11/07 10:08:02;;;;;;;107.32;65.90;;;;;;;;;;5053190;28;20035;-51
2021/11/07 10:10:32;;;;;;;55.30;39.20;;;;;;;;;;5053200;28;20074;-51
2021/11/07 10:13:05;;;;;;;64.68;37.40;;;;;;;;;;5053143;28;20469;-54
2021/11/07 10:15:42;;;;;;;81.25;47.75;;;;;;;;;;5053479;28;20095;-51
2021/11/07 10:18:13;;;;;;;87.53;53.55;;;;;;;;;;5053613;28;20040;-51
2021/11/07 10:20:56;;;;;;;79.55;48.33;;;;;;;;;;5053852;28;20055;-52
2021/11/07 10:23:37;;;;;;;72.43;44.33;;;;;;;;;;5053356;28;20100;-52
2021/11/07 10:26:24;;;;;;;65.88;41.80;;;;;;;;;;5053544;28;20028;-52
2021/11/07 10:28:54;;;;;;;68.97;44.10;;;;;;;;;;5053536;28;20440;-53
2021/11/07 10:31:37;;;;;;;43.05;29.80;;;;;;;;;;5053356;28;20100;-52
2021/11/07 10:35:05;;;;;;;79.90;51.13;;;;;;;;;;5053162;28;20036;-53
2021/11/07 10:53:57;;;;;;;51.50;35.08;;;;;;;;;;4991588;28;20445;-55
2021/11/07 10:56:23;;;;;;;46.35;34.40;;;;;;;;;;4991762;28;20050;-56
2021/11/07 10:58:50;;;;;;;47.63;34.67;;;;;;;;;;4991737;28;20030;-57
2021/11/07 11:01:24;;;;;;;53.75;37.67;;;;;;;;;;4988578;28;20073;-56
2021/11/07 11:03:52;;;;;;;45.10;31.30;;;;;;;;;;4989453;28;20033;-56
2021/11/07 11:06:18;;;;;;;40.60;28.25;;;;;;;;;;4991062;28;20034;-57
2021/11/07 11:08:57;;;;;;;54.40;34.67;;;;;;;;;;4990995;28;20570;-56
2021/11/07 11:11:34;;;;;;;60.35;39.08;;;;;;;;;;4991069;28;20030;-57
2021/11/07 11:14:09;;;;;;;33.28;24.20;;;;;;;;;;4991039;28;20371;-56
2021/11/07 11:22:17;;;;;;;45.75;30.15;;;;;;;;;;4991504;28;20100;-55
2021/11/07 11:35:27;;;;;;;46.28;30.73;;;;;;;;;;5052674;28;20033;-56
2021/11/07 11:40:35;;;;;;;72.90;43.65;;;;;;;;;;5052769;28;20021;-56
2021/11/07 11:43:12;;;;;;;69.55;44.60;;;;;;;;;;5052694;28;20079;-56
2021/11/07 11:45:42;;;;;;;55.20;38.03;;;;;;;;;;5052645;28;20025;-59
2021/11/07 11:48:43;;;;;;;57.22;38.00;;;;;;;;;;5052587;28;20053;-56
2021/11/07 11:54:06;;;;;;;57.72;37.55;;;;;;;;;;5052749;28;20025;-56
2021/11/07 11:56:37;;;;;;;53.80;33.10;;;;;;;;;;5056249;28;20039;-56
2021/11/07 11:59:09;;;;;;;;;;;;;;;;;;5056625;28;20020;-56
2021/11/07 12:01:46;;;;;;;55.25;36.20;;;;;;;;;;5056254;28;20335;-56
2021/11/07 12:04:23;;;;;;;46.47;30.55;;;;;;;;;;5055967;28;20032;-56
2021/11/07 12:06:52;;;;;;;51.22;33.00;;;;;;;;;;5056141;28;20020;-54
2021/11/07 12:12:01;;;;;;;45.40;30.33;;;;;;;;;;5055233;28;20382;-57
2021/11/07 12:16:58;;;;;;;52.63;35.10;;;;;;;;;;5054920;28;20018;-56
2021/11/07 12:19:30;;;;;;;54.90;38.17;;;;;;;;;;5055255;28;20021;-54
2021/11/07 12:22:07;;;;;;;79.90;53.35;;;;;;;;;;5047488;28;20025;-56
2021/11/07 12:24:36;;;;;;;93.97;58.55;;;;;;;;;;5026129;28;20028;-56
2021/11/07 12:27:25;;;;;;;91.63;54.17;;;;;;;;;;5024482;28;20048;-56
2021/11/07 12:29:53;;;;;;;79.05;48.10;;;;;;;;;;5026126;28;20571;-55
2021/11/07 12:32:19;;;;;;;65.32;39.40;;;;;;;;;;5024513;28;20035;-54
2021/11/07 12:40:37;;;;;;;64.00;40.65;;;;;;;;;;5025489;28;20044;-55
2021/11/07 12:43:08;;;;;;;64.18;41.42;;;;;;;;;;5025304;28;20123;-55
2021/11/07 12:45:39;;;;;;;96.45;61.88;;;;;;;;;;5024380;28;20033;-55
2021/11/07 12:48:07;;;;;;;104.05;63.67;;;;;;;;;;5024807;28;20021;-55
2021/11/07 12:51:09;;;;;;;87.90;54.05;;;;;;;;;;5025842;28;20053;-55
2021/11/07 12:53:54;;;;;;;59.95;36.13;;;;;;;;;;5001892;28;20044;-55
2021/11/07 12:56:35;;;;;;;66.68;42.42;;;;;;;;;;5001038;28;20049;-54
2021/11/07 12:59:01;;;;;;;70.13;44.40;;;;;;;;;;5000654;28;20065;-54
2021/11/07 13:01:27;;;;;;;69.15;42.63;;;;;;;;;;5000734;28;20062;-54
2021/11/07 13:04:00;;;;;;;83.97;46.15;;;;;;;;;;5000803;28;20034;-54
2021/11/07 13:06:33;;;;;;;76.50;47.20;;;;;;;;;;5000567;28;20026;-53
2021/11/07 13:09:02;;;;;;;72.07;46.28;;;;;;;;;;5001141;28;20398;-54
2021/11/07 13:11:37;;;;;;;70.68;45.30;;;;;;;;;;5001800;28;20791;-53
2021/11/07 13:14:30;;;;;;;74.47;42.42;;;;;;;;;;5000720;28;20117;-52
2021/11/07 13:20:11;;;;;;;81.97;42.90;;;;;;;;;;5006707;28;20056;-55
2021/11/07 13:23:04;;;;;;;56.00;36.92;;;;;;;;;;5001241;28;20161;-55
2021/11/07 13:25:57;;;;;;;55.08;36.95;;;;;;;;;;5001918;28;20032;-55
2021/11/07 13:28:36;;;;;;;58.78;37.55;;;;;;;;;;5019270;28;20048;-55
2021/11/07 13:31:15;;;;;;;64.57;43.20;;;;;;;;;;5022586;28;20070;-54
2021/11/07 13:33:44;;;;;;;75.68;47.30;;;;;;;;;;5024915;28;20017;-53
2021/11/07 13:36:11;;;;;;;61.22;40.33;;;;;;;;;;5023853;28;20036;-54
2021/11/07 13:38:48;;;;;;;65.78;42.33;;;;;;;;;;5024179;28;20335;-54
2021/11/07 13:41:17;;;;;;;73.95;48.00;;;;;;;;;;5023547;28;20029;-54
2021/11/07 13:43:48;;;;;;;59.45;40.13;;;;;;;;;;5023412;28;20017;-55
2021/11/07 13:46:16;;;;;;;68.00;43.55;;;;;;;;;;5024844;28;20040;-55
2021/11/07 13:48:42;;;;;;;60.47;37.97;;;;;;;;;;5023406;28;20083;-53
2021/11/07 13:51:09;;;;;;;71.53;43.38;;;;;;;;;;5023445;28;20128;-54
2021/11/07 13:53:39;;;;;;;71.60;45.55;;;;;;;;;;5023962;28;20033;-54
2021/11/07 13:56:12;;;;;;;101.05;60.75;;;;;;;;;;5024749;28;20359;-55
2021/11/07 13:58:41;;;;;;;62.30;40.50;;;;;;;;;;5022914;28;20017;-54
2021/11/07 14:01:16;;;;;;;77.07;48.88;;;;;;;;;;5024435;28;20132;-54
2021/11/07 14:03:44;;;;;;;78.78;49.72;;;;;;;;;;5023399;28;20390;-54
2021/11/07 14:06:24;;;;;;;79.90;51.65;;;;;;;;;;5022770;28;20120;-53
2021/11/07 14:08:55;;;;;;;68.63;43.05;;;;;;;;;;5024308;28;20057;-54
2021/11/07 14:11:22;;;;;;;69.28;43.67;;;;;;;;;;5023815;28;20025;-53
2021/11/07 14:14:01;;;;;;;85.63;53.30;;;;;;;;;;5024523;28;20017;-53
2021/11/07 14:16:31;;;;;;;88.80;56.40;;;;;;;;;;5022177;28;20140;-54
2021/11/07 14:18:59;;;;;;;100.47;59.28;;;;;;;;;;5023398;28;20676;-54
2021/11/07 14:21:32;;;;;;;82.00;50.58;;;;;;;;;;5023099;28;20169;-54
2021/11/07 14:26:41;;;;;;;87.05;51.85;;;;;;;;;;5022525;28;20037;-55
2021/11/07 14:31:49;;;;;;;85.50;52.65;;;;;;;;;;5022974;28;20072;-54
2021/11/07 14:34:23;;;;;;;84.25;51.95;;;;;;;;;;5023771;28;20049;-55
2021/11/07 14:37:10;;;;;;;82.20;49.63;;;;;;;;;;5022625;28;20041;-54
2021/11/07 14:48:09;;;;;;;67.80;45.00;;;;;;;;;;5023590;28;20040;-54
2021/11/07 14:50:53;;;;;;;77.22;48.78;;;;;;;;;;5022303;28;20057;-55
2021/11/07 14:53:31;;;;;;;101.53;63.13;;;;;;;;;;5022467;28;20022;-55
2021/11/07 14:58:42;;;;;;;90.65;55.70;;;;;;;;;;5022377;28;20059;-54
2021/11/07 15:01:18;;;;;;;73.20;45.80;;;;;;;;;;5023529;28;20026;-53
2021/11/07 15:04:09;;;;;;;69.35;45.88;;;;;;;;;;5023189;28;20481;-52
2021/11/07 15:06:54;;;;;;;76.32;50.17;;;;;;;;;;5022072;28;20146;-52
2021/11/07 15:09:41;;;;;;;89.13;53.75;;;;;;;;;;5022220;28;20025;-54
2021/11/07 15:14:57;;;;;;;91.03;56.65;;;;;;;;;;5022306;28;20033;-52
2021/11/07 15:17:38;;;;;;;98.00;59.38;;;;;;;;;;5021513;28;20045;-53
2021/11/07 15:20:24;;;;;;;95.22;55.15;;;;;;;;;;5021732;28;20405;-52
2021/11/07 15:22:53;;;;;;;92.60;53.75;;;;;;;;;;5023204;28;20090;-52
2021/11/07 15:25:26;;;;;;;95.55;59.40;;;;;;;;;;5023956;28;20024;-52
2021/11/07 15:28:15;;;;;;;86.60;53.13;;;;;;;;;;5023787;28;20028;-56
2021/11/07 15:30:42;;;;;;;108.35;59.28;;;;;;;;;;5026094;28;20021;-55
2021/11/07 15:33:16;;;;;;;113.60;63.28;;;;;;;;;;5025623;28;20017;-52
2021/11/07 15:35:54;;;;;;;104.70;59.88;;;;;;;;;;5025747;28;20040;-52
2021/11/07 15:38:23;;;;;;;95.40;58.10;;;;;;;;;;5026682;28;20086;-53
2021/11/07 15:40:50;;;;;;;75.78;46.88;;;;;;;;;;5025893;28;20067;-54
2021/11/07 15:43:27;;;;;;;73.05;42.67;;;;;;;;;;5025902;28;20036;-56
2021/11/07 15:46:05;;;;;;;81.95;50.53;;;;;;;;;;5027581;28;20029;-53
2021/11/07 15:48:38;;;;;;;75.13;45.15;;;;;;;;;;5026756;28;20299;-54
2021/11/07 15:51:23;;;;;;;81.43;49.38;;;;;;;;;;5026543;28;20052;-53
2021/11/07 15:54:09;;;;;;;78.90;45.75;;;;;;;;;;5027290;28;20475;-53
2021/11/07 15:56:40;;;;;;;65.53;42.22;;;;;;;;;;5025560;28;20098;-53
2021/11/07 16:02:06;;;;;;;;;;;;;;;;;;5026067;28;20021;-51
2021/11/07 16:07:07;;;;;;;70.40;43.65;;;;;;;;;;5025828;28;20631;-53
2021/11/07 16:12:26;;;;;;;84.90;47.15;;;;;;;;;;5026860;28;20028;-53
2021/11/07 16:17:31;;;;;;;105.50;57.38;;;;;;;;;;5024265;28;20753;-53
2021/11/07 16:19:59;;;;;;;78.30;44.20;;;;;;;;;;5024613;28;20102;-53
2021/11/07 16:22:25;;;;;;;91.43;48.20;;;;;;;;;;5025004;28;20044;-53
2021/11/07 16:24:53;;;;;;;101.28;54.92;;;;;;;;;;5025224;28;20039;-53
2021/11/07 16:27:22;;;;;;;112.82;56.65;;;;;;;;;;5025133;28;20033;-55
2021/11/07 16:29:52;;;;;;;103.88;57.63;;;;;;;;;;5024933;28;20056;-56
2021/11/07 16:32:32;;;;;;;69.85;40.53;;;;;;;;;;5024787;28;20039;-53
2021/11/07 16:35:12;;;;;;;81.20;44.70;;;;;;;;;;5025704;28;20033;-55
2021/11/07 16:37:49;;;;;;;94.03;54.83;;;;;;;;;;5024681;28;20033;-52
2021/11/07 16:40:29;;;;;;;77.95;43.90;;;;;;;;;;5023535;28;20040;-52
2021/11/07 16:42:58;;;;;;;87.70;46.58;;;;;;;;;;5025993;28;20017;-53
2021/11/07 16:45:24;;;;;;;95.50;53.58;;;;;;;;;;5024842;28;20545;-55
2021/11/07 16:47:56;;;;;;;85.10;47.85;;;;;;;;;;5025230;28;20025;-52
2021/11/07 16:50:28;;;;;;;93.38;53.22;;;;;;;;;;5024474;28;20151;-53
2021/11/07 16:53:00;;;;;;;86.68;51.72;;;;;;;;;;5025942;28;20499;-55
2021/11/07 16:55:38;;;;;;;74.72;42.80;;;;;;;;;;5024485;28;20135;-55
2021/11/07 16:58:05;;;;;;;97.28;56.20;;;;;;;;;;5024186;28;20022;-55
2021/11/07 17:00:37;;;;;;;88.80;50.28;;;;;;;;;;5024476;28;20021;-55
2021/11/07 17:03:16;;;;;;;91.32;49.55;;;;;;;;;;5025441;28;20029;-55
2021/11/07 17:05:49;;;;;;;77.93;44.28;;;;;;;;;;5024489;28;20028;-53
2021/11/07 17:08:23;;;;;;;87.40;48.33;;;;;;;;;;5024970;28;20060;-53
2021/11/07 17:10:52;;;;;;;84.05;45.78;;;;;;;;;;5024152;28;20025;-54
2021/11/07 17:13:18;;;;;;;85.38;49.25;;;;;;;;;;5025285;28;20307;-54
2021/11/07 17:15:56;;;;;;;90.22;50.65;;;;;;;;;;5024688;28;20152;-53
2021/11/07 17:18:27;;;;;;;89.75;48.50;;;;;;;;;;5024784;28;20476;-54
2021/11/07 17:28:43;;;;;;;74.13;38.75;;;;;;;;;;5023939;28;20041;-53
2021/11/07 17:36:43;;;;;;;78.07;42.83;;;;;;;;;;5024858;28;20045;-52